Time;durP1;ratioP1;P1;durP2;ratioP2;P2;SDS_P1;SDS_P2;PMS_P1;PMS_P2;Temp;Humidity;BMP_temperature;BMP_pressure;BME280_temperature;BME280_humidity;BME280_pressure;Samples;Min_cycle;Max_cycle;Signal;HPM_P1;HPM_P2
2022/02/04 00:27:49;;;;;;;6.93;5.28;;;;;;;7.90;72.54;99967.91;10399568;28;20107;-71
2022/02/04 00:32:53;;;;;;;6.78;5.95;;;;;;;7.85;72.48;99975.34;10400081;28;20144;-71
2022/02/04 00:38:32;;;;;;;5.53;5.03;;;;;;;7.85;72.42;99975.34;10399314;28;20091;-71
2022/02/04 00:43:22;;;;;;;6.28;5.22;;;;;;;7.83;71.71;99966.66;10399529;28;20056;-71
2022/02/04 00:53:36;;;;;;;3.95;2.97;;;;;;;8.01;71.53;99980.38;10402657;28;20144;-71
2022/02/04 01:30:39;;;;;;;5.22;4.72;;;;;;;7.64;71.20;99978.63;10395072;28;21087;-71
2022/02/04 01:35:41;;;;;;;5.30;4.57;;;;;;;7.73;71.05;99977.94;10392799;28;20159;-71
2022/02/04 01:40:42;;;;;;;4.85;4.28;;;;;;;7.72;70.96;99981.53;10395287;28;20046;-71
2022/02/04 01:45:43;;;;;;;5.13;4.55;;;;;;;7.53;71.59;99986.47;10394034;28;20053;-72
2022/02/04 01:50:46;;;;;;;5.53;4.57;;;;;;;7.68;71.76;99988.03;10399882;28;20218;-71
2022/02/04 01:55:48;;;;;;;5.82;5.25;;;;;;;7.76;71.23;99987.44;10395215;28;20041;-71
2022/02/04 02:00:49;;;;;;;5.63;5.00;;;;;;;7.86;71.07;99972.56;10398383;28;21024;-71
2022/02/04 02:05:53;;;;;;;4.45;4.05;;;;;;;7.96;70.84;99986.00;10393968;28;20041;-72
2022/02/04 02:10:55;;;;;;;4.43;4.03;;;;;;;7.98;70.80;99984.09;10398138;28;20040;-71
2022/02/04 02:42:32;;;;;;;4.38;3.25;;;;;;;7.58;71.81;99966.66;10400340;28;21430;-71
2022/02/04 03:03:10;;;;;;;4.13;3.15;;;;;;;7.64;71.94;99968.03;10402495;28;20526;-71
2022/02/04 03:08:12;;;;;;;4.03;3.50;;;;;;;7.71;71.77;99968.41;10400081;28;20120;-72
2022/02/04 03:13:13;;;;;;;4.10;3.00;;;;;;;7.74;71.44;99962.88;10399569;28;20567;-74
2022/02/04 03:18:23;;;;;;;5.65;3.47;;;;;;;7.56;72.49;99951.84;10398208;28;20067;-72
2022/02/04 03:23:27;;;;;;;4.20;2.50;;;;;;;7.79;72.11;99968.69;10425449;28;20053;-73
2022/02/04 03:28:30;;;;;;;3.20;2.90;;;;;;;7.77;72.12;99971.44;10417504;28;20121;-70
2022/02/04 03:33:33;;;;;;;5.43;3.38;;;;;;;7.68;71.92;99961.53;10423618;28;20076;-71
2022/02/04 03:38:34;;;;;;;4.15;3.17;;;;;;;7.86;71.86;99971.75;10401213;28;20641;-71
2022/02/04 03:43:36;;;;;;;4.55;3.42;;;;;;;7.70;72.03;99987.91;10399296;28;20055;-70
2022/02/04 03:48:37;;;;;;;6.28;4.28;;;;;;;7.69;72.48;99971.19;10402129;28;20077;-72
2022/02/04 03:53:39;;;;;;;4.43;4.00;;;;;;;7.72;72.24;99968.31;10403167;28;20070;-72
2022/02/04 03:58:42;;;;;;;4.55;4.15;;;;;;;7.70;72.69;99982.59;10398380;28;20159;-72
2022/02/04 04:03:43;;;;;;;4.70;4.20;;;;;;;7.62;72.66;99985.81;10405786;28;20045;-71
2022/02/04 04:08:45;;;;;;;5.03;4.18;;;;;;;7.57;73.62;99982.66;10406987;28;20045;-72
2022/02/04 04:13:47;;;;;;;5.03;4.38;;;;;;;7.46;74.15;99979.94;10401743;28;20053;-70
2022/02/04 04:18:48;;;;;;;5.00;4.50;;;;;;;7.59;73.78;99986.03;10399700;28;20072;-71
2022/02/04 04:23:49;;;;;;;5.00;3.95;;;;;;;7.56;74.05;99986.25;10403799;28;20056;-72
2022/02/04 04:28:51;;;;;;;4.75;4.22;;;;;;;7.59;73.65;99986.03;10406959;28;20041;-72
2022/02/04 04:33:52;;;;;;;4.63;4.13;;;;;;;7.51;74.20;99986.59;10410271;28;20136;-71
2022/02/04 04:39:10;;;;;;;4.68;4.00;;;;;;;7.50;74.44;99984.06;10406206;28;20051;-71
2022/02/04 05:31:58;;;;;;;5.70;5.10;;;;;;;7.28;77.06;99985.59;10399338;28;20376;-71
2022/02/04 05:37:06;;;;;;;7.25;6.55;;;;;;;7.29;77.16;99979.34;10397414;28;20048;-71
2022/02/04 05:42:09;;;;;;;6.68;5.97;;;;;;;7.36;76.89;99991.19;10391725;28;20048;-71
2022/02/04 05:47:17;;;;;;;7.38;6.05;;;;;;;7.20;77.78;99985.28;10395865;28;20049;-72
2022/02/04 05:52:25;;;;;;;6.88;6.00;;;;;;;7.13;78.31;99997.25;10401172;28;20041;-72
2022/02/04 05:57:43;;;;;;;7.20;6.28;;;;;;;7.14;78.64;99980.44;10403926;28;20071;-71
2022/02/04 06:14:05;;;;;;;9.02;6.75;;;;;;;7.40;78.75;99987.38;10283433;28;20054;-72
2022/02/04 06:24:19;;;;;;;8.48;6.30;;;;;;;7.24;79.28;99989.41;10409177;28;20040;-73
2022/02/04 06:29:21;;;;;;;7.03;6.22;;;;;;;7.15;79.90;99993.56;10409692;28;20065;-72
2022/02/04 06:34:23;;;;;;;7.20;6.35;;;;;;;7.14;80.07;99975.13;10422745;28;20057;-70
2022/02/04 06:39:24;;;;;;;8.55;6.70;;;;;;;7.25;80.24;99988.44;10426757;28;20060;-72
2022/02/04 06:44:25;;;;;;;7.78;7.03;;;;;;;7.29;80.09;99983.78;10374384;28;20052;-70
2022/02/04 06:49:27;;;;;;;8.38;6.90;;;;;;;7.37;79.62;99990.25;10369097;28;20127;-70
2022/02/04 06:54:28;;;;;;;8.73;7.75;;;;;;;7.30;80.22;99982.84;10367825;28;20925;-72
2022/02/04 06:59:30;;;;;;;7.88;7.07;;;;;;;7.26;79.78;99984.84;10369242;28;20060;-72
2022/02/04 07:04:34;;;;;;;9.25;7.65;;;;;;;7.33;80.32;99991.41;10372243;28;20053;-72
2022/02/04 07:09:53;;;;;;;8.00;7.20;;;;;;;7.41;79.66;99989.03;10374979;28;20056;-70
2022/02/04 07:20:00;;;;;;;8.73;7.23;;;;;;;7.33;79.57;99986.13;10408056;28;20056;-73
2022/02/04 07:25:05;;;;;;;7.97;6.97;;;;;;;7.43;79.36;99986.28;10405854;28;20077;-71
2022/02/04 07:30:08;;;;;;;9.98;7.60;;;;;;;7.39;79.21;99985.66;10377599;28;20056;-72
2022/02/04 07:45:36;;;;;;;8.98;7.55;;;;;;;7.32;79.51;99995.00;10407382;28;20314;-72
2022/02/04 07:50:37;;;;;;;8.82;7.43;;;;;;;7.36;79.12;99996.47;10456171;28;20052;-74
2022/02/04 07:55:39;;;;;;;9.45;8.02;;;;;;;7.41;79.21;99989.03;10451295;28;20227;-75
2022/02/04 08:00:40;;;;;;;11.35;8.05;;;;;;;7.32;79.51;99976.47;10432456;28;20075;-72
2022/02/04 08:05:43;;;;;;;8.75;7.53;;;;;;;7.39;79.56;99975.09;10409742;28;20186;-71
2022/02/04 08:11:43;;;;;;;8.95;7.82;;;;;;;7.35;79.63;99978.06;10408660;28;20049;-71
2022/02/04 08:21:54;;;;;;;9.23;7.40;;;;;;;7.41;79.75;99967.84;10407585;28;20064;-71
2022/02/04 08:58:44;;;;;;;7.75;6.95;;;;;;;7.27;82.07;99944.19;10403797;28;20049;-70
2022/02/04 09:08:53;;;;;;;8.40;7.40;;;;;;;7.53;81.43;99944.09;10406808;28;20057;-71
2022/02/04 09:19:18;;;;;;;9.05;6.85;;;;;;;7.37;82.13;99947.88;10409801;28;20045;-70
2022/02/04 09:24:20;;;;;;;7.65;6.72;;;;;;;7.48;81.83;99956.84;10441621;28;20180;-71
2022/02/04 09:29:22;;;;;;;8.50;6.22;;;;;;;7.39;81.92;99953.91;10402533;28;20052;-74
2022/02/04 09:34:23;;;;;;;7.88;7.00;;;;;;;7.42;82.13;99942.25;10405785;28;20495;-73
2022/02/04 09:39:25;;;;;;;7.10;6.40;;;;;;;7.48;82.04;99951.56;10405352;28;20586;-71
2022/02/04 09:44:26;;;;;;;8.65;6.22;;;;;;;7.54;81.40;99937.88;10467636;28;20133;-72
2022/02/04 09:49:32;;;;;;;7.93;6.65;;;;;;;7.54;81.67;99929.91;10393092;28;20100;-71
2022/02/04 10:21:41;;;;;;;6.20;5.60;;;;;;;7.78;80.60;99914.00;10414722;28;20044;-70
2022/02/04 10:26:42;;;;;;;6.30;5.57;;;;;;;7.92;80.22;99907.69;10412611;28;20045;-70
2022/02/04 10:31:52;;;;;;;6.47;5.45;;;;;;;7.82;79.50;99901.38;10407761;28;20063;-71
2022/02/04 10:42:16;;;;;;;6.15;5.30;;;;;;;7.67;80.87;99872.44;10406800;28;20078;-71
2022/02/04 10:58:22;;;;;;;5.00;4.50;;;;;;;7.81;80.17;99879.34;10406292;28;20450;-71
2022/02/04 11:03:24;;;;;;;;;;;;;;;7.76;80.11;99866.44;10407912;28;20057;-71
2022/02/04 11:51:34;;;;;;;2.70;2.20;;;;;;;7.89;78.12;99799.25;10406135;28;20135;-69
2022/02/04 11:56:58;;;;;;;3.63;2.22;;;;;;;7.84;78.69;99783.72;10403618;28;20052;-70
2022/02/04 12:02:00;;;;;;;2.65;2.33;;;;;;;7.95;78.33;99778.41;10407184;28;20394;-70
2022/02/04 12:07:31;;;;;;;5.10;2.92;;;;;;;8.07;77.58;99765.19;10400449;28;20049;-70
2022/02/04 12:12:56;;;;;;;3.53;2.55;;;;;;;8.17;77.21;99738.78;10400000;28;20045;-70
2022/02/04 12:18:08;;;;;;;4.20;2.75;;;;;;;8.19;76.69;99723.63;10432709;28;20541;-70
2022/02/04 12:23:35;;;;;;;3.22;2.60;;;;;;;8.00;77.13;99714.47;10402934;28;20135;-71
2022/02/04 12:28:49;;;;;;;4.22;2.25;;;;;;;8.07;77.15;99720.97;10393695;28;20045;-70
2022/02/04 12:33:55;;;;;;;2.70;2.25;;;;;;;8.16;76.90;99713.25;10405884;28;20057;-72
2022/02/04 12:38:59;;;;;;;2.15;1.95;;;;;;;8.19;76.86;99710.34;10402593;28;20059;-69
2022/02/04 12:44:04;;;;;;;3.95;2.40;;;;;;;8.25;76.63;99696.63;10401059;28;20052;-70
2022/02/04 12:49:17;;;;;;;3.88;2.08;;;;;;;8.17;76.50;99683.09;10399413;28;20879;-70
2022/02/04 12:54:31;;;;;;;3.53;1.92;;;;;;;8.08;77.01;99696.13;10412569;28;20041;-71
2022/02/04 13:41:39;;;;;;;1.70;1.30;;;;;;;8.07;72.79;99593.72;10464037;27;1911484;-71
2022/02/04 13:46:48;;;;;;;1.42;1.08;;;;;;;8.05;71.98;99600.13;10474335;28;20068;-71
2022/02/04 13:57:19;;;;;;;2.55;0.98;;;;;;;8.14;70.37;99579.00;10411415;28;20395;-72
2022/02/04 14:02:25;;;;;;;1.33;0.95;;;;;;;8.19;70.84;99572.50;10421777;28;20144;-71
2022/02/04 14:07:39;;;;;;;0.82;0.65;;;;;;;8.13;71.23;99572.00;10410151;28;20048;-72
2022/02/04 14:12:42;;;;;;;1.10;0.50;;;;;;;8.09;70.87;99565.28;10412876;28;20091;-70
2022/02/04 14:17:43;;;;;;;1.58;0.57;;;;;;;8.02;71.07;99563.28;10412176;28;20063;-70
2022/02/04 14:22:45;;;;;;;1.10;0.70;;;;;;;8.00;71.34;99576.66;10411111;28;20686;-70
2022/02/04 14:27:50;;;;;;;1.70;1.13;;;;;;;8.00;71.63;99571.34;10407176;28;20243;-72
2022/02/04 14:34:39;;;;;;;2.83;0.60;;;;;;;7.98;71.48;99570.59;10414632;28;20403;-70
2022/02/04 15:04:51;;;;;;;0.63;0.40;;;;;;;8.02;71.90;99539.41;10382704;28;20573;-71
2022/02/04 15:09:55;;;;;;;0.40;0.20;;;;;;;7.97;71.64;99555.66;10385813;28;20055;-70
2022/02/04 15:14:57;;;;;;;0.50;0.35;;;;;;;8.00;71.97;99544.84;10382633;28;20110;-69
2022/02/04 15:19:58;;;;;;;0.47;0.22;;;;;;;7.95;71.97;99537.25;10387510;28;20084;-69
2022/02/04 15:25:09;;;;;;;0.52;0.30;;;;;;;7.99;72.74;99535.19;10392584;28;21054;-69
2022/02/04 15:30:11;;;;;;;0.63;0.20;;;;;;;7.91;74.72;99540.25;10388040;28;20904;-72
2022/02/04 15:35:13;;;;;;;1.85;0.65;;;;;;;7.92;75.20;99531.34;10401106;28;20055;-69
2022/02/04 15:40:15;;;;;;;0.30;0.30;;;;;;;7.85;75.66;99506.31;10388937;28;20059;-69
2022/02/04 15:46:02;;;;;;;1.40;0.60;;;;;;;7.87;76.09;99517.66;10391542;28;20405;-70
2022/02/04 15:51:30;;;;;;;2.63;0.70;;;;;;;7.83;75.55;99522.34;10434827;28;20057;-69
2022/02/04 15:56:26;;;;;;;0.82;0.60;;;;;;;7.83;75.30;99506.44;10431561;28;20055;-70
2022/02/04 16:06:49;;;;;;;1.08;0.63;;;;;;;7.86;75.76;99505.34;10464896;28;20064;-70
2022/02/04 16:17:42;;;;;;;1.00;0.55;;;;;;;7.87;75.12;99486.69;10426876;28;20045;-70
2022/02/04 16:32:39;;;;;;;1.77;0.85;;;;;;;7.67;75.75;99472.41;10429293;28;20059;-71
2022/02/04 16:37:42;;;;;;;0.73;0.30;;;;;;;7.69;76.05;99482.88;10423710;28;20183;-70
2022/02/04 16:42:45;;;;;;;;;;;;;;;7.74;75.91;99486.81;10428014;28;20045;-70
2022/02/04 16:47:47;;;;;;;1.55;0.65;;;;;;;7.74;75.95;99484.16;10430162;28;19956;-72
2022/02/04 16:52:49;;;;;;;2.00;0.60;;;;;;;7.81;75.62;99486.31;10447384;28;20048;-71
2022/02/04 16:57:51;;;;;;;1.08;0.60;;;;;;;7.77;76.13;99488.38;10447120;28;20067;-71
2022/02/04 17:02:56;;;;;;;0.88;0.60;;;;;;;7.78;76.46;99490.91;10460249;28;20053;-70
2022/02/04 17:08:06;;;;;;;0.70;0.40;;;;;;;7.77;76.74;99483.09;10432150;28;20517;-69
2022/02/04 17:13:08;;;;;;;0.82;0.70;;;;;;;7.72;77.62;99482.63;10424195;28;20063;-71
2022/02/04 17:18:11;;;;;;;1.70;0.80;;;;;;;7.80;78.13;99493.44;10424190;28;20072;-72
2022/02/04 17:23:13;;;;;;;4.55;1.88;;;;;;;7.70;79.14;99490.72;10442537;28;20052;-70
2022/02/04 17:28:14;;;;;;;4.03;0.70;;;;;;;7.69;79.48;99496.13;10425041;28;20143;-71
2022/02/04 17:33:16;;;;;;;3.22;0.82;;;;;;;7.74;79.25;99493.94;10424470;28;20048;-71
2022/02/04 17:38:17;;;;;;;1.58;0.80;;;;;;;7.71;78.94;99481.78;10421964;28;20059;-70
2022/02/04 17:43:20;;;;;;;1.58;0.93;;;;;;;7.80;79.29;99490.78;10426906;28;20065;-71
2022/02/04 17:48:29;;;;;;;1.77;0.50;;;;;;;7.77;79.28;99483.91;10419178;28;20437;-71
2022/02/04 17:53:46;;;;;;;0.73;0.47;;;;;;;7.72;79.81;99485.28;10423885;28;20063;-72
2022/02/04 17:59:04;;;;;;;1.52;0.52;;;;;;;7.64;81.46;99475.31;10423509;28;20497;-71
2022/02/04 18:09:26;;;;;;;0.68;0.45;;;;;;;7.65;81.10;99482.28;10424157;28;20449;-71
2022/02/04 18:14:28;;;;;;;1.50;0.73;;;;;;;7.68;81.51;99482.03;10421696;28;20060;-71
2022/02/04 18:19:30;;;;;;;1.10;0.80;;;;;;;7.81;80.92;99486.31;10429311;28;20055;-71
2022/02/04 18:24:31;;;;;;;2.30;1.00;;;;;;;7.71;81.37;99481.78;10429034;28;20117;-70
2022/02/04 18:29:40;;;;;;;1.25;0.80;;;;;;;7.73;81.86;99486.94;10439232;28;21166;-70
2022/02/04 18:34:41;;;;;;;1.38;0.80;;;;;;;7.74;81.89;99484.16;10428786;28;20151;-71
2022/02/04 18:44:54;;;;;;;1.97;1.30;;;;;;;7.73;84.72;99484.28;10426396;28;20678;-71
2022/02/04 18:50:02;;;;;;;1.98;1.23;;;;;;;7.84;85.51;99486.09;10428223;28;20045;-71
2022/02/04 19:00:17;;;;;;;2.55;1.30;;;;;;;7.87;98.36;99507.88;10430880;28;20273;-71
2022/02/04 19:05:24;;;;;;;2.97;1.47;;;;;;;8.09;89.32;99522.88;10431405;28;20048;-70
2022/02/04 19:10:26;;;;;;;3.00;1.50;;;;;;;7.85;89.09;99532.81;10424943;28;20044;-71
2022/02/04 19:15:43;;;;;;;2.85;1.20;;;;;;;7.81;90.82;99568.47;10442745;28;20388;-70
2022/02/04 19:21:00;;;;;;;2.67;1.27;;;;;;;7.78;90.96;99586.28;10435870;28;20044;-70
2022/02/04 19:26:12;;;;;;;2.72;1.63;;;;;;;7.67;92.60;99659.63;10436480;28;20053;-70
2022/02/04 19:31:14;;;;;;;1.70;0.80;;;;;;;6.82;84.93;99653.66;10423979;28;20800;-70
2022/02/04 19:36:16;;;;;;;1.13;0.25;;;;;;;6.60;82.86;99669.44;10426383;28;20065;-70
2022/02/04 19:41:21;;;;;;;0.68;0.30;;;;;;;6.66;82.26;99690.97;10429123;28;20558;-69
2022/02/04 19:46:27;;;;;;;1.17;0.40;;;;;;;6.51;76.44;99707.97;10429779;28;20051;-69
2022/02/04 19:51:57;;;;;;;0.60;0.45;;;;;;;6.35;76.97;99738.16;10427893;28;20045;-71
2022/02/04 20:28:16;;;;;;;1.17;0.95;;;;;;;6.16;74.07;99849.59;10428772;28;20521;-69
2022/02/04 20:33:18;;;;;;;1.35;0.90;;;;;;;6.40;74.56;99855.97;10425160;28;20159;-70
2022/02/04 20:38:21;;;;;;;2.17;1.10;;;;;;;6.45;71.83;99869.69;10427843;28;20545;-71
2022/02/04 20:43:30;;;;;;;1.55;0.68;;;;;;;6.47;71.36;99876.56;10428011;28;20053;-70
2022/02/04 20:48:34;;;;;;;1.02;0.70;;;;;;;6.45;68.84;99888.19;10420042;28;20044;-70
2022/02/04 20:53:37;;;;;;;1.95;1.75;;;;;;;6.68;68.68;99911.25;10425625;28;20048;-71
2022/02/04 20:58:39;;;;;;;1.10;0.90;;;;;;;6.59;68.38;99922.50;10430672;28;20049;-71
2022/02/04 21:03:41;;;;;;;1.27;0.82;;;;;;;6.72;70.13;99927.75;10424226;28;20053;-69
2022/02/04 21:10:00;;;;;;;0.90;0.70;;;;;;;6.31;68.44;99934.94;10424634;28;20056;-70
2022/02/04 21:14:11;;;;;;;1.83;0.70;;;;;;;5.75;72.08;99965.94;10411370;28;20053;-71
2022/02/04 21:19:13;;;;;;;0.82;0.50;;;;;;;5.84;69.40;99958.28;10422285;28;20130;-71
2022/02/04 21:24:15;;;;;;;1.27;0.73;;;;;;;5.44;70.12;99974.03;10432931;28;20574;-70
2022/02/04 21:29:16;;;;;;;2.88;0.55;;;;;;;5.29;71.17;99993.50;10441816;28;20057;-71
2022/02/04 21:39:40;;;;;;;5.60;1.23;;;;;;;5.31;70.42;100018.84;10446026;28;20128;-71
2022/02/04 21:44:44;;;;;;;2.72;1.50;;;;;;;5.44;71.53;100036.56;10445382;28;20127;-70
2022/02/04 21:49:49;;;;;;;1.87;0.53;;;;;;;5.11;70.20;100051.72;10439122;28;20055;-72
2022/02/04 21:54:51;;;;;;;1.67;0.93;;;;;;;5.23;69.75;100063.34;10433260;28;20045;-71
2022/02/04 21:59:53;;;;;;;4.00;1.88;;;;;;;5.19;69.50;100067.09;10446222;28;20053;-71
2022/02/04 22:04:58;;;;;;;2.90;0.75;;;;;;;5.14;68.22;100077.09;10446489;28;20110;-71
2022/02/04 22:26:09;;;;;;;6.03;1.77;;;;;;;5.29;67.96;100121.03;10470621;28;20072;-72
2022/02/04 22:31:12;;;;;;;3.13;1.30;;;;;;;5.53;68.21;100133.66;10486616;28;20049;-75
2022/02/04 22:36:36;;;;;;;2.90;1.02;;;;;;;5.72;66.26;100141.31;10449635;28;20056;-72
2022/02/04 22:42:00;;;;;;;4.43;1.05;;;;;;;5.71;66.54;100147.53;10445200;28;20403;-71
2022/02/04 22:47:16;;;;;;;3.10;1.10;;;;;;;5.65;67.03;100161.97;10446097;28;20036;-70
2022/02/04 22:52:40;;;;;;;2.80;1.10;;;;;;;5.78;66.04;100174.41;10443468;28;20067;-71
2022/02/04 22:57:53;;;;;;;5.43;1.85;;;;;;;5.90;65.45;100176.31;10446143;28;20144;-71
2022/02/04 23:02:56;;;;;;;5.22;1.23;;;;;;;6.01;65.49;100181.78;10444503;28;20513;-71
2022/02/04 23:08:00;;;;;;;3.33;1.30;;;;;;;5.81;64.23;100188.28;10447257;28;20515;-70
2022/02/04 23:13:09;;;;;;;3.03;1.48;;;;;;;5.67;65.03;100196.19;10443370;28;20132;-70
2022/02/04 23:18:18;;;;;;;3.40;1.13;;;;;;;5.51;63.91;100198.94;10447501;28;20049;-71
2022/02/04 23:23:21;;;;;;;3.35;1.52;;;;;;;5.40;65.34;100209.28;10449480;28;20532;-71
2022/02/04 23:44:22;;;;;;;6.25;1.50;;;;;;;5.01;65.67;100231.78;10458694;28;20144;-70
2022/02/04 23:54:57;;;;;;;2.88;1.55;;;;;;;5.12;66.36;100261.06;10402674;28;20047;-71
